Airport View

Enter AWOS ICAO identifier for current METAR.

ex. KFNL

KSLH 221835Z AUTO 28008G14KT 10SM CLR 24/11 A3000 RMK AO2 T02430109

22 Jul 2019 18:47

Frequency: 118.175

Phone: 231-627-4671

Other Area AWOS: KPLN - KMCD - KMGN - KPZQ

TAF KPLN 221722Z 2218/2318 33009G17KT P6SM SKC FM222300 31009KT P6SM SKC FM230300 VRB03KT P6SM SKC FM231100 VRB03KT P6SM BKN070 FM231600 32007KT P6SM SCT060